Weather at Mata'aho Airport

Public forecast

Using degrees Celsius for public forecast. Weather courtesy of forecast.io.

Current aviation weather report (METAR) for Mata'aho Airport

Report is more than 6 hours old.

Retrieved 2020/03/11 06:00 UTC (2 years ago):

NFTO 110600Z08004KT 9999 FEW018 BKN290 28/25 Q1010

Closest aviation forecast (TAF) to Mata'aho Airport

Forecast is more than 6 hours old.

Closest forecast is Pointe Vele Airport, 160.1 nm (296.5 km) WNW. Retrieved 2022-01-17 00:00 UTC (10 hours ago):

TAF NLWF 162300Z 1700/1724 27010KT 9999 SCT020 SCT040 TEMPO 1700/1706 4000 SHRA BKN012 FEW018CB